createdAt,value
2023-05-02T00:03:26.861Z,5.32
2023-05-02T00:08:20.585Z,4.75
2023-05-02T00:13:13.678Z,4.70
2023-05-02T00:18:07.731Z,4.57
2023-05-02T00:23:01.280Z,4.53
2023-05-02T00:27:54.190Z,4.43
2023-05-02T00:32:47.492Z,4.55
2023-05-02T00:37:39.923Z,4.38
2023-05-02T00:42:36.730Z,4.28
2023-05-02T00:47:29.410Z,4.40
2023-05-02T00:52:23.723Z,3.95
2023-05-02T00:57:17.112Z,4.43
2023-05-02T01:02:40.091Z,4.53
2023-05-02T01:08:00.722Z,3.97
2023-05-02T01:17:57.923Z,3.90
2023-05-02T01:22:51.993Z,4.30
2023-05-02T01:28:04.039Z,3.58
2023-05-02T01:32:59.655Z,3.70
2023-05-02T01:37:53.541Z,3.45
2023-05-02T01:42:47.816Z,4.00
2023-05-02T01:47:42.523Z,3.55
2023-05-02T01:52:36.063Z,3.88
2023-05-02T01:57:29.533Z,4.10
2023-05-02T02:02:27.133Z,3.20
2023-05-02T02:07:21.286Z,2.90
2023-05-02T02:12:27.533Z,3.30
2023-05-02T02:17:28.188Z,3.17
2023-05-02T02:22:21.604Z,2.70
2023-05-02T02:27:14.989Z,3.92
2023-05-02T02:32:11.952Z,2.72
2023-05-02T02:37:20.023Z,3.13
2023-05-02T02:42:50.418Z,3.08
2023-05-02T02:47:49.494Z,3.10
2023-05-02T02:53:16.756Z,2.55
2023-05-02T02:58:46.082Z,2.75
2023-05-02T03:03:43.221Z,2.90
2023-05-02T03:08:42.916Z,3.05
2023-05-02T03:13:40.959Z,2.88
2023-05-02T03:18:35.111Z,3.22
2023-05-02T03:23:28.444Z,2.53
2023-05-02T03:28:22.043Z,2.35
2023-05-02T03:33:17.404Z,2.70
2023-05-02T03:38:12.216Z,2.25
2023-05-02T03:43:05.829Z,2.50
2023-05-02T03:47:59.471Z,2.33
2023-05-02T03:52:53.648Z,2.55
2023-05-02T03:57:55.634Z,2.67
2023-05-02T04:02:48.394Z,2.05
2023-05-02T04:07:45.500Z,2.15
2023-05-02T04:12:38.135Z,2.35
2023-05-02T04:17:32.316Z,2.30
2023-05-02T04:22:25.571Z,2.50
2023-05-02T04:27:22.555Z,2.13
2023-05-02T04:32:16.471Z,2.05
2023-05-02T04:37:10.236Z,1.83
2023-05-02T04:42:04.035Z,2.00
2023-05-02T04:47:00.438Z,1.95
2023-05-02T04:51:53.750Z,2.00
2023-05-02T04:56:47.744Z,1.92
2023-05-02T05:01:41.505Z,1.95
2023-05-02T05:06:36.811Z,1.70
2023-05-02T05:11:30.219Z,2.03
2023-05-02T05:16:23.641Z,1.83
2023-05-02T05:21:17.766Z,2.30
2023-05-02T05:26:34.783Z,2.17
2023-05-02T05:31:29.253Z,3.30
2023-05-02T05:36:25.725Z,2.83
2023-05-02T05:41:18.568Z,2.30
2023-05-02T05:46:15.119Z,2.28
2023-05-02T05:51:08.214Z,2.63
2023-05-02T05:56:00.585Z,2.53
2023-05-02T06:00:53.861Z,2.35
2023-05-02T06:05:46.921Z,2.50
2023-05-02T06:10:45.577Z,2.63
2023-05-02T06:15:38.009Z,2.30
2023-05-02T06:20:32.809Z,2.42
2023-05-02T06:25:26.418Z,2.58
2023-05-02T06:30:19.351Z,2.58
2023-05-02T06:35:13.088Z,2.97
2023-05-02T06:40:06.325Z,2.03
2023-05-02T06:44:59.847Z,2.03
2023-05-02T06:49:54.236Z,2.45
2023-05-02T06:54:51.003Z,2.65
2023-05-02T06:59:44.546Z,2.42
2023-05-02T07:04:38.451Z,2.28
2023-05-02T07:09:32.983Z,2.30
2023-05-02T07:14:25.668Z,2.15
2023-05-02T07:19:18.887Z,1.92
2023-05-02T07:24:11.913Z,2.03
2023-05-02T07:29:07.283Z,1.80
2023-05-02T07:33:59.885Z,1.63
2023-05-02T07:38:52.936Z,2.45
2023-05-02T07:43:46.026Z,1.95
2023-05-02T07:48:38.257Z,1.88
2023-05-02T07:53:31.700Z,2.03
2023-05-02T07:58:25.121Z,1.85
2023-05-02T08:03:17.410Z,1.85
2023-05-02T08:08:14.174Z,1.80
2023-05-02T08:13:06.727Z,1.45
2023-05-02T08:17:59.930Z,1.55
2023-05-02T08:22:53.816Z,1.42
2023-05-02T08:27:51.214Z,1.42
2023-05-02T08:32:44.498Z,1.58
2023-05-02T08:37:38.582Z,1.67
2023-05-02T08:42:35.285Z,1.50
2023-05-02T08:47:30.365Z,1.60
2023-05-02T08:52:25.592Z,1.52
2023-05-02T08:57:18.693Z,1.45
2023-05-02T09:02:24.378Z,1.65
2023-05-02T09:07:17.603Z,1.40
2023-05-02T09:12:11.267Z,1.35
2023-05-02T09:17:04.187Z,1.63
2023-05-02T09:22:02.952Z,1.40
2023-05-02T09:27:05.818Z,1.40
2023-05-02T09:31:59.118Z,1.85
2023-05-02T09:36:54.832Z,1.13
2023-05-02T09:41:48.790Z,0.88
2023-05-02T09:46:44.701Z,1.15
2023-05-02T09:51:38.307Z,1.25
2023-05-02T09:56:32.039Z,1.25
2023-05-02T10:01:24.631Z,1.27
2023-05-02T10:06:19.173Z,1.27
2023-05-02T10:11:13.543Z,1.92
2023-05-02T10:16:07.852Z,2.30
2023-05-02T10:21:08.203Z,1.83
2023-05-02T10:26:02.198Z,2.53
2023-05-02T10:30:55.471Z,1.95
2023-05-02T10:35:48.802Z,2.20
2023-05-02T10:40:43.831Z,1.80
2023-05-02T10:45:38.028Z,1.30
2023-05-02T10:50:47.834Z,1.70
2023-05-02T10:55:40.983Z,1.67
2023-05-02T11:00:35.535Z,1.63
2023-05-02T11:05:29.621Z,1.52
2023-05-02T11:10:22.216Z,1.60
2023-05-02T11:15:36.889Z,1.48
2023-05-02T11:20:36.969Z,1.30
2023-05-02T11:25:30.937Z,1.40
2023-05-02T11:30:44.440Z,1.27
2023-05-02T11:35:37.464Z,1.20
2023-05-02T11:40:31.293Z,1.17
2023-05-02T11:45:35.265Z,1.17
2023-05-02T11:50:31.915Z,1.40
2023-05-02T11:55:24.818Z,1.92
2023-05-02T12:00:18.636Z,2.83
2023-05-02T12:05:13.040Z,2.60
2023-05-02T12:10:08.165Z,4.97
2023-05-02T12:15:05.684Z,8.55
2023-05-02T12:19:59.451Z,8.82
2023-05-02T12:24:56.915Z,8.20
2023-05-02T12:29:50.409Z,8.65
2023-05-02T12:34:44.361Z,7.20
2023-05-02T12:39:43.387Z,7.32
2023-05-02T12:44:39.217Z,7.35
2023-05-02T12:49:36.898Z,7.10
2023-05-02T12:54:29.493Z,5.95
2023-05-02T12:59:29.651Z,6.57
2023-05-02T13:04:22.835Z,5.75
2023-05-02T13:09:17.218Z,5.70
2023-05-02T13:14:14.614Z,5.15
2023-05-02T13:19:09.906Z,4.88
2023-05-02T13:24:04.725Z,5.13
2023-05-02T13:28:56.897Z,5.15
2023-05-02T13:33:49.752Z,4.97
2023-05-02T13:38:42.261Z,4.65
2023-05-02T13:43:34.517Z,4.00
2023-05-02T13:48:26.837Z,4.82
2023-05-02T13:53:20.129Z,4.35
2023-05-02T13:58:13.455Z,5.15
2023-05-02T14:03:06.226Z,4.78
2023-05-02T14:07:59.687Z,4.97
2023-05-02T14:12:53.808Z,4.85
2023-05-02T14:17:47.120Z,4.47
2023-05-02T14:22:40.925Z,4.93
2023-05-02T14:27:34.069Z,4.90
2023-05-02T14:32:28.052Z,4.68
2023-05-02T14:37:21.558Z,4.10
2023-05-02T14:42:14.174Z,4.85
2023-05-02T14:47:08.240Z,4.00
2023-05-02T14:52:01.319Z,4.07
2023-05-02T14:56:54.767Z,3.25
2023-05-02T15:01:47.245Z,3.15
2023-05-02T15:06:40.755Z,3.97
2023-05-02T15:11:34.755Z,4.35
2023-05-02T15:16:31.988Z,3.50
2023-05-02T15:21:25.863Z,3.45
2023-05-02T15:26:18.259Z,3.83
2023-05-02T15:31:11.403Z,3.70
2023-05-02T15:36:04.042Z,3.45
2023-05-02T15:40:59.946Z,3.70
2023-05-02T15:45:54.555Z,3.28
2023-05-02T15:50:48.794Z,3.53
2023-05-02T15:55:43.627Z,3.25
2023-05-02T16:00:36.716Z,2.92
2023-05-02T16:05:29.703Z,2.65
2023-05-02T16:10:23.370Z,3.90
2023-05-02T16:15:16.860Z,4.22
2023-05-02T16:20:10.705Z,4.65
2023-05-02T16:25:06.379Z,4.03
2023-05-02T16:30:00.584Z,5.15
2023-05-02T16:34:53.643Z,4.90
2023-05-02T16:39:46.923Z,5.25
2023-05-02T16:44:40.764Z,6.05
2023-05-02T16:49:33.597Z,6.10
2023-05-02T16:54:26.291Z,5.75
2023-05-02T16:59:19.383Z,5.95
2023-05-02T17:04:12.948Z,6.50
2023-05-02T17:09:06.308Z,6.03
2023-05-02T17:14:00.479Z,6.35
2023-05-02T17:18:54.084Z,5.72
2023-05-02T17:23:46.764Z,5.75
2023-05-02T17:28:42.223Z,5.70
2023-05-02T17:33:35.720Z,5.43
2023-05-02T17:38:27.764Z,5.10
2023-05-02T17:43:20.275Z,5.10
2023-05-02T17:48:13.918Z,5.38
2023-05-02T17:53:08.701Z,4.55
2023-05-02T17:58:02.745Z,4.60
2023-05-02T18:02:56.223Z,4.43
2023-05-02T18:07:49.420Z,3.63
2023-05-02T18:12:42.593Z,3.83
2023-05-02T18:17:35.848Z,3.10
2023-05-02T18:22:29.709Z,2.88
2023-05-02T18:27:22.203Z,2.58
2023-05-02T18:32:15.745Z,1.70
2023-05-02T18:37:09.908Z,2.08
2023-05-02T18:42:06.348Z,2.35
2023-05-02T18:46:59.401Z,1.70
2023-05-02T18:51:55.871Z,1.98
2023-05-02T18:56:49.334Z,1.92
2023-05-02T19:01:42.969Z,1.45
2023-05-02T19:06:36.662Z,2.85
2023-05-02T19:11:30.789Z,1.63
2023-05-02T19:16:25.721Z,1.70
2023-05-02T19:21:18.521Z,1.83
2023-05-02T19:26:15.128Z,1.73
2023-05-02T19:31:28.535Z,1.80
2023-05-02T19:36:22.783Z,1.80
2023-05-02T19:41:17.342Z,1.20
2023-05-02T19:46:10.177Z,1.45
2023-05-02T19:51:05.020Z,1.40
2023-05-02T19:55:59.509Z,1.45
2023-05-02T20:00:53.307Z,1.33
2023-05-02T20:05:47.193Z,1.50
2023-05-02T20:10:40.527Z,1.30
2023-05-02T20:15:33.303Z,1.50
2023-05-02T20:20:30.262Z,1.35
2023-05-02T20:25:26.015Z,1.40
2023-05-02T20:30:21.028Z,1.70
2023-05-02T20:35:14.222Z,1.20
2023-05-02T20:40:10.048Z,1.70
2023-05-02T20:45:02.857Z,1.67
2023-05-02T20:49:56.988Z,1.55
2023-05-02T20:54:53.430Z,1.65
2023-05-02T20:59:46.512Z,1.45
2023-05-02T21:04:42.648Z,1.35
2023-05-02T21:09:34.855Z,1.50
2023-05-02T21:14:27.456Z,1.25
2023-05-02T21:19:21.584Z,2.10
2023-05-02T21:24:14.256Z,1.40
2023-05-02T21:29:09.332Z,1.48
2023-05-02T21:34:01.832Z,1.30
2023-05-02T21:38:56.362Z,1.20
2023-05-02T21:43:49.484Z,1.30
2023-05-02T21:48:43.478Z,0.98
2023-05-02T21:53:36.468Z,1.30
2023-05-02T21:58:30.204Z,1.17
2023-05-02T22:03:23.999Z,1.10
2023-05-02T22:08:17.108Z,1.60
2023-05-02T22:13:14.293Z,0.93
2023-05-02T22:18:09.085Z,1.10
2023-05-02T22:23:02.774Z,1.00
2023-05-02T22:27:57.145Z,0.90
2023-05-02T22:32:50.557Z,1.10
2023-05-02T22:37:42.725Z,1.00
2023-05-02T22:42:36.689Z,0.77
2023-05-02T22:47:30.347Z,0.77
2023-05-02T22:52:27.917Z,1.17
2023-05-02T22:57:21.608Z,1.17
2023-05-02T23:02:14.196Z,0.80
2023-05-02T23:07:06.909Z,1.00
2023-05-02T23:11:59.608Z,1.00
2023-05-02T23:16:54.275Z,0.70
2023-05-02T23:21:47.719Z,0.65
2023-05-02T23:26:41.472Z,0.95
2023-05-02T23:31:35.525Z,0.80
2023-05-02T23:36:28.785Z,0.73
2023-05-02T23:41:23.700Z,0.90
2023-05-02T23:46:17.837Z,1.15
2023-05-02T23:51:10.600Z,0.60
2023-05-02T23:56:04.092Z,0.80
